Fort Davis, TX

2:11 AM CST on February 23, 2017 (GMT -0600)
Mountain View | | Change Station
Active Advisory: Fire Weather Warning

Elev 4870 ft 30.59 °N, 103.89 °W | Updated 12 seconds ago

Clear
Clear
45.0 °F
Feels Like 45 °F
N
0.0
Wind Variable Wind from NE

Today
High -- | Low -- °F
--% Chance of Precip.
Yesterday
High -- | Low -- °F
Precip. -- in
Pressure 29.81 in
Visibility 10.0 miles
Clouds Clear
Windchill 45 °F
Dew Point 19 °F
Humidity 35%
Rainfall 0.00 in
Snow Depth Not available.
7:27 AM 6:50 PM
Waning Crescent, 12% visible
METAR KMRF 230756Z AUTO 34004KT 10SM CLR 02/M07 A2991 RMK AO2 SLP092 T00221067 FZRANO
Pressure 29.81 in
Visibility 10.0 miles
Clouds Clear
Windchill 45 °F
Dew Point 19 °F
Humidity 35%
Rainfall 0.00 in
Snow Depth Not available.
7:27 AM 6:50 PM
Waning Crescent, 12% visible
METAR KMRF 230756Z AUTO 34004KT 10SM CLR 02/M07 A2991 RMK AO2 SLP092 T00221067 FZRANO

Get Your Daily Forecast Email!

Thanks for signing up!

Be on the lookout for a verification email in your inbox.

You'll start receiving the daily forecast at 8 AM.

×

10-Day Weather Forecast

Almanac

Astronomy

Feb. 23, 2017 Rise Set
Actual Time
Civil Twilight
Nautical Twilight
Astronomical Twilight
Moon
Length of Visible Light
Length of Day
Tomorrow will be .
, % of the Moon is Illuminated

Today's Extremes

State Highs State Lows

Community

WunderPhotos

Upload Photos

1,962,540 photos uploaded!

WunderBlog® & News

Nearby

Air Quality

  Air Quality AQ Index Pollutant
Not available.

Snow Depth

Station Depth Elevation

Earthquake Activity

City Distance Mag. Time & Date
Minimum magnitude displayed is 2.5.

Coastal Water Temperatures

Place Temperature

Stations

Nearby Weather Stations

Station Location Temp. Windchill Dew Point Humidity Wind Precip. Elev Updated Type
                   

Watches & Warnings

Fire Weather Warning
Issued: 8:01 PM MST Feb. 22, 2017 – National Weather Service

... Red flag warning remains in effect from 11 am CST /10 am MST/
to 8 PM CST /7 PM MST/ Thursday for warm... dry... very windy... and
very high to extreme fire danger for most of the Permian Basin
and trans Pecos area...

* wind... 25 to 45 mph. Higher gusts.

* Temperatures... 15 to 20 degrees above normal.

* Humidity... 8 to 15 percent.

* Impacts... any fires that develop will likely spread rapidly.
Outdoor burning is not recommended.

Precautionary/preparedness actions... this is a very dangerous
fire weather situation. Strong winds and very low relative
humidities combined with above normal temperatures will create
weather conditions favorable for the multiple occurrence of large
fires.